Terminal Aerodrome Forecast
Issued by NWS Corpus Christi, TX

Home | Current Version | Previous Version | Text Only | Print | Product List | Glossary On
Versions: 1 2 3 4 5 6 7 8 9 10 11 12 13 14 15 16 17 18 19
000
FTUS44 KCRP 291120
TAFVCT
TAF
KVCT 291120Z 2912/3012 VRB06KT P6SM VCTS SCT035CB BKN100
      TEMPO 2912/2915 VRB15G25KT 5SM -TSRA BR BKN025CB
     FM291600 15015KT P6SM VCSH BKN035
     FM291900 15013KT P6SM SCT025 BKN150
     FM300500 15009KT P6SM SCT017 BKN250
     FM301000 13005KT 4SM BR BKN025=

USA.gov is the U.S. government's official web portal to all federal, state and local government web resources and services.